sensor_id;sensor_type;location;lat;lon;timestamp;pressure;altitude;pressure_sealevel;temperature;humidity
40245;BME280;25963;42.694;23.600;2023-03-22T00:00:49;94828.63;;;9.56;100.00
40245;BME280;25963;42.694;23.600;2023-03-22T00:03:15;94848.78;;;9.69;100.00
40245;BME280;25963;42.694;23.600;2023-03-22T00:05:41;94856.59;;;9.76;100.00
40245;BME280;25963;42.694;23.600;2023-03-22T00:08:07;94845.47;;;9.74;100.00
40245;BME280;25963;42.694;23.600;2023-03-22T00:10:34;94845.47;;;9.74;100.00
40245;BME280;25963;42.694;23.600;2023-03-22T00:13:00;94847.47;;;9.78;100.00
40245;BME280;25963;42.694;23.600;2023-03-22T00:15:26;94849.25;;;9.78;100.00
40245;BME280;25963;42.694;23.600;2023-03-22T00:17:54;94826.50;;;9.65;100.00
40245;BME280;25963;42.694;23.600;2023-03-22T00:20:20;94847.81;;;9.82;100.00
40245;BME280;25963;42.694;23.600;2023-03-22T00:22:49;94843.63;;;9.74;100.00
40245;BME280;25963;42.694;23.600;2023-03-22T00:25:14;94817.97;;;9.51;100.00
40245;BME280;25963;42.694;23.600;2023-03-22T00:27:40;94843.09;;;9.47;100.00
40245;BME280;25963;42.694;23.600;2023-03-22T00:30:07;94836.97;;;9.53;100.00
40245;BME280;25963;42.694;23.600;2023-03-22T00:32:34;94818.75;;;9.33;100.00
40245;BME280;25963;42.694;23.600;2023-03-22T00:35:00;94794.66;;;9.30;100.00
40245;BME280;25963;42.694;23.600;2023-03-22T00:37:26;94838.59;;;9.54;100.00
40245;BME280;25963;42.694;23.600;2023-03-22T00:39:53;94805.97;;;9.37;100.00
40245;BME280;25963;42.694;23.600;2023-03-22T00:42:18;94808.97;;;9.41;100.00
40245;BME280;25963;42.694;23.600;2023-03-22T00:44:44;94823.72;;;9.42;100.00
40245;BME280;25963;42.694;23.600;2023-03-22T00:47:10;94800.81;;;9.42;100.00
40245;BME280;25963;42.694;23.600;2023-03-22T00:49:36;94797.63;;;9.40;100.00
40245;BME280;25963;42.694;23.600;2023-03-22T00:52:02;94818.78;;;9.52;100.00
40245;BME280;25963;42.694;23.600;2023-03-22T00:54:27;94814.75;;;9.49;100.00
40245;BME280;25963;42.694;23.600;2023-03-22T00:56:53;94822.75;;;9.36;100.00
40245;BME280;25963;42.694;23.600;2023-03-22T00:59:18;94821.06;;;9.23;100.00
40245;BME280;25963;42.694;23.600;2023-03-22T01:01:43;94816.16;;;9.27;100.00
40245;BME280;25963;42.694;23.600;2023-03-22T01:04:09;94809.91;;;9.28;100.00
40245;BME280;25963;42.694;23.600;2023-03-22T01:06:39;94799.41;;;9.21;100.00
40245;BME280;25963;42.694;23.600;2023-03-22T01:09:05;94807.03;;;9.29;100.00
40245;BME280;25963;42.694;23.600;2023-03-22T01:11:30;94804.69;;;9.21;100.00
40245;BME280;25963;42.694;23.600;2023-03-22T01:13:55;94816.94;;;9.34;100.00
40245;BME280;25963;42.694;23.600;2023-03-22T01:16:21;94812.38;;;9.23;100.00
40245;BME280;25963;42.694;23.600;2023-03-22T01:18:46;94814.19;;;9.22;100.00
40245;BME280;25963;42.694;23.600;2023-03-22T01:21:12;94811.19;;;9.19;100.00
40245;BME280;25963;42.694;23.600;2023-03-22T01:23:37;94808.72;;;9.24;100.00
40245;BME280;25963;42.694;23.600;2023-03-22T01:26:03;94810.34;;;9.25;100.00
40245;BME280;25963;42.694;23.600;2023-03-22T01:28:29;94814.41;;;9.21;100.00
40245;BME280;25963;42.694;23.600;2023-03-22T01:30:55;94789.53;;;8.98;100.00
40245;BME280;25963;42.694;23.600;2023-03-22T01:33:24;94810.25;;;9.13;100.00
40245;BME280;25963;42.694;23.600;2023-03-22T01:35:50;94809.56;;;9.18;100.00
40245;BME280;25963;42.694;23.600;2023-03-22T01:38:16;94779.72;;;9.05;100.00
40245;BME280;25963;42.694;23.600;2023-03-22T01:40:41;94803.44;;;9.24;100.00
40245;BME280;25963;42.694;23.600;2023-03-22T01:43:14;94800.59;;;9.25;100.00
40245;BME280;25963;42.694;23.600;2023-03-22T01:45:58;94813.53;;;9.27;100.00
40245;BME280;25963;42.694;23.600;2023-03-22T01:48:30;94808.59;;;9.37;100.00
40245;BME280;25963;42.694;23.600;2023-03-22T01:51:15;94811.00;;;9.38;100.00
40245;BME280;25963;42.694;23.600;2023-03-22T01:53:57;94798.19;;;9.24;100.00
40245;BME280;25963;42.694;23.600;2023-03-22T01:56:25;94806.66;;;9.26;100.00
40245;BME280;25963;42.694;23.600;2023-03-22T01:58:52;94805.63;;;9.27;100.00
40245;BME280;25963;42.694;23.600;2023-03-22T02:01:20;94792.63;;;9.13;100.00
40245;BME280;25963;42.694;23.600;2023-03-22T02:06:27;94811.34;;;9.24;100.00
40245;BME280;25963;42.694;23.600;2023-03-22T02:08:54;94810.16;;;9.20;100.00
40245;BME280;25963;42.694;23.600;2023-03-22T02:11:43;94815.97;;;9.28;100.00
40245;BME280;25963;42.694;23.600;2023-03-22T02:15:01;94806.59;;;9.32;100.00
40245;BME280;25963;42.694;23.600;2023-03-22T02:23:18;94799.56;;;9.26;100.00
40245;BME280;25963;42.694;23.600;2023-03-22T02:26:19;94814.72;;;9.31;100.00
40245;BME280;25963;42.694;23.600;2023-03-22T02:29:10;94813.09;;;9.30;100.00
40245;BME280;25963;42.694;23.600;2023-03-22T02:38:04;94818.78;;;9.08;100.00
40245;BME280;25963;42.694;23.600;2023-03-22T02:43:54;94822.72;;;9.18;100.00
40245;BME280;25963;42.694;23.600;2023-03-22T02:46:01;94823.25;;;9.26;100.00
40245;BME280;25963;42.694;23.600;2023-03-22T02:48:36;94833.00;;;9.26;100.00
40245;BME280;25963;42.694;23.600;2023-03-22T02:51:09;94837.22;;;9.27;100.00
40245;BME280;25963;42.694;23.600;2023-03-22T02:53:45;94831.06;;;9.14;100.00
40245;BME280;25963;42.694;23.600;2023-03-22T02:56:20;94840.34;;;9.17;100.00
40245;BME280;25963;42.694;23.600;2023-03-22T02:58:53;94830.94;;;9.09;100.00
40245;BME280;25963;42.694;23.600;2023-03-22T03:01:27;94837.13;;;9.15;100.00
40245;BME280;25963;42.694;23.600;2023-03-22T03:03:56;94838.53;;;9.18;100.00
40245;BME280;25963;42.694;23.600;2023-03-22T03:06:26;94842.19;;;9.17;100.00
40245;BME280;25963;42.694;23.600;2023-03-22T03:08:56;94841.53;;;9.21;100.00
40245;BME280;25963;42.694;23.600;2023-03-22T03:11:23;94847.75;;;9.27;100.00
40245;BME280;25963;42.694;23.600;2023-03-22T03:13:49;94847.75;;;9.27;100.00
40245;BME280;25963;42.694;23.600;2023-03-22T03:16:20;94839.06;;;9.26;100.00
40245;BME280;25963;42.694;23.600;2023-03-22T03:18:54;94844.56;;;9.25;100.00
40245;BME280;25963;42.694;23.600;2023-03-22T03:27:03;94843.34;;;9.21;100.00
40245;BME280;25963;42.694;23.600;2023-03-22T03:29:59;94842.34;;;9.22;100.00
40245;BME280;25963;42.694;23.600;2023-03-22T03:32:35;94822.59;;;9.12;100.00
40245;BME280;25963;42.694;23.600;2023-03-22T03:35:06;94845.94;;;9.27;100.00
40245;BME280;25963;42.694;23.600;2023-03-22T03:37:37;94835.81;;;9.24;100.00
40245;BME280;25963;42.694;23.600;2023-03-22T03:40:11;94842.56;;;9.20;100.00
40245;BME280;25963;42.694;23.600;2023-03-22T03:42:45;94848.47;;;9.16;100.00
40245;BME280;25963;42.694;23.600;2023-03-22T03:45:14;94842.78;;;9.19;100.00
40245;BME280;25963;42.694;23.600;2023-03-22T03:47:42;94845.63;;;9.17;100.00
40245;BME280;25963;42.694;23.600;2023-03-22T03:50:10;94832.28;;;9.12;100.00
40245;BME280;25963;42.694;23.600;2023-03-22T03:52:37;94813.78;;;9.00;100.00
40245;BME280;25963;42.694;23.600;2023-03-22T03:55:03;94817.88;;;8.96;100.00
40245;BME280;25963;42.694;23.600;2023-03-22T03:57:28;94837.72;;;9.17;100.00
40245;BME280;25963;42.694;23.600;2023-03-22T03:59:54;94845.69;;;9.10;100.00
40245;BME280;25963;42.694;23.600;2023-03-22T04:02:20;94851.75;;;9.11;100.00
40245;BME280;25963;42.694;23.600;2023-03-22T04:04:45;94854.00;;;9.07;100.00
40245;BME280;25963;42.694;23.600;2023-03-22T04:07:10;94828.94;;;8.80;100.00
40245;BME280;25963;42.694;23.600;2023-03-22T04:09:37;94856.34;;;8.90;100.00
40245;BME280;25963;42.694;23.600;2023-03-22T04:12:03;94825.69;;;8.78;100.00
40245;BME280;25963;42.694;23.600;2023-03-22T04:14:29;94814.38;;;8.77;100.00
40245;BME280;25963;42.694;23.600;2023-03-22T04:16:54;94865.16;;;9.03;100.00
40245;BME280;25963;42.694;23.600;2023-03-22T04:19:21;94823.25;;;8.83;100.00
40245;BME280;25963;42.694;23.600;2023-03-22T04:21:47;94865.66;;;8.93;100.00
40245;BME280;25963;42.694;23.600;2023-03-22T04:24:13;94873.00;;;8.84;100.00
40245;BME280;25963;42.694;23.600;2023-03-22T04:26:39;94860.22;;;8.88;100.00
40245;BME280;25963;42.694;23.600;2023-03-22T04:29:05;94868.94;;;8.88;100.00
40245;BME280;25963;42.694;23.600;2023-03-22T04:31:32;94867.69;;;8.91;100.00
40245;BME280;25963;42.694;23.600;2023-03-22T04:33:58;94871.38;;;8.83;100.00
40245;BME280;25963;42.694;23.600;2023-03-22T04:36:31;94878.91;;;8.80;100.00
40245;BME280;25963;42.694;23.600;2023-03-22T04:39:00;94875.41;;;8.86;100.00
40245;BME280;25963;42.694;23.600;2023-03-22T04:41:25;94860.16;;;8.69;100.00
40245;BME280;25963;42.694;23.600;2023-03-22T04:43:50;94856.34;;;8.65;100.00
40245;BME280;25963;42.694;23.600;2023-03-22T04:46:16;94846.88;;;8.58;100.00
40245;BME280;25963;42.694;23.600;2023-03-22T04:48:42;94869.44;;;8.72;100.00
40245;BME280;25963;42.694;23.600;2023-03-22T04:51:09;94879.81;;;8.60;100.00
40245;BME280;25963;42.694;23.600;2023-03-22T04:53:35;94881.19;;;8.69;100.00
40245;BME280;25963;42.694;23.600;2023-03-22T04:56:11;94889.66;;;8.72;100.00
40245;BME280;25963;42.694;23.600;2023-03-22T04:58:39;94854.19;;;8.56;100.00
40245;BME280;25963;42.694;23.600;2023-03-22T05:01:05;94887.75;;;8.85;100.00
40245;BME280;25963;42.694;23.600;2023-03-22T05:03:31;94871.88;;;8.74;100.00
40245;BME280;25963;42.694;23.600;2023-03-22T05:05:58;94888.81;;;8.78;100.00
40245;BME280;25963;42.694;23.600;2023-03-22T05:08:26;94896.34;;;8.74;100.00
40245;BME280;25963;42.694;23.600;2023-03-22T05:10:57;94900.19;;;8.72;100.00
40245;BME280;25963;42.694;23.600;2023-03-22T05:13:25;94906.25;;;8.72;100.00
40245;BME280;25963;42.694;23.600;2023-03-22T05:15:51;94867.34;;;8.49;100.00
40245;BME280;25963;42.694;23.600;2023-03-22T05:18:18;94909.06;;;8.77;100.00
40245;BME280;25963;42.694;23.600;2023-03-22T05:20:45;94902.94;;;8.83;100.00
40245;BME280;25963;42.694;23.600;2023-03-22T05:23:11;94908.63;;;8.80;100.00
40245;BME280;25963;42.694;23.600;2023-03-22T05:25:37;94902.34;;;8.81;100.00
40245;BME280;25963;42.694;23.600;2023-03-22T05:28:04;94884.06;;;8.61;100.00
40245;BME280;25963;42.694;23.600;2023-03-22T05:30:30;94918.34;;;8.80;100.00
40245;BME280;25963;42.694;23.600;2023-03-22T05:33:03;94920.13;;;8.86;100.00
40245;BME280;25963;42.694;23.600;2023-03-22T05:35:30;94930.66;;;8.86;100.00
40245;BME280;25963;42.694;23.600;2023-03-22T05:37:56;94894.75;;;8.66;100.00
40245;BME280;25963;42.694;23.600;2023-03-22T05:40:23;94925.69;;;8.71;100.00
40245;BME280;25963;42.694;23.600;2023-03-22T05:42:50;94926.41;;;8.85;100.00
40245;BME280;25963;42.694;23.600;2023-03-22T05:45:15;94926.38;;;8.91;100.00
40245;BME280;25963;42.694;23.600;2023-03-22T05:47:41;94931.63;;;8.91;100.00
40245;BME280;25963;42.694;23.600;2023-03-22T05:50:12;94933.19;;;8.99;100.00
40245;BME280;25963;42.694;23.600;2023-03-22T05:52:38;94934.16;;;9.05;100.00
40245;BME280;25963;42.694;23.600;2023-03-22T05:55:04;94933.19;;;8.99;100.00
40245;BME280;25963;42.694;23.600;2023-03-22T05:57:31;94943.75;;;8.93;100.00
40245;BME280;25963;42.694;23.600;2023-03-22T05:59:57;94939.72;;;8.90;100.00
40245;BME280;25963;42.694;23.600;2023-03-22T06:02:23;94925.59;;;8.84;100.00
40245;BME280;25963;42.694;23.600;2023-03-22T06:04:49;94948.94;;;9.06;100.00
40245;BME280;25963;42.694;23.600;2023-03-22T06:07:16;94944.06;;;9.09;100.00
40245;BME280;25963;42.694;23.600;2023-03-22T06:09:42;94944.81;;;9.17;100.00
40245;BME280;25963;42.694;23.600;2023-03-22T06:12:07;94949.06;;;9.18;100.00
40245;BME280;25963;42.694;23.600;2023-03-22T06:14:33;94952.06;;;9.21;100.00
40245;BME280;25963;42.694;23.600;2023-03-22T06:16:58;94954.13;;;9.19;100.00
40245;BME280;25963;42.694;23.600;2023-03-22T06:19:24;94958.91;;;9.29;100.00
40245;BME280;25963;42.694;23.600;2023-03-22T06:21:55;94957.88;;;9.30;100.00
40245;BME280;25963;42.694;23.600;2023-03-22T06:24:20;94955.25;;;9.30;100.00
40245;BME280;25963;42.694;23.600;2023-03-22T06:26:46;94957.19;;;9.41;100.00
40245;BME280;25963;42.694;23.600;2023-03-22T06:29:12;94933.19;;;9.31;100.00
40245;BME280;25963;42.694;23.600;2023-03-22T06:31:37;94936.97;;;9.35;100.00
40245;BME280;25963;42.694;23.600;2023-03-22T06:34:03;94946.25;;;9.63;100.00
40245;BME280;25963;42.694;23.600;2023-03-22T06:36:29;94936.69;;;9.68;100.00
40245;BME280;25963;42.694;23.600;2023-03-22T06:38:56;94955.56;;;9.90;100.00
40245;BME280;25963;42.694;23.600;2023-03-22T06:41:23;94952.91;;;9.90;100.00
40245;BME280;25963;42.694;23.600;2023-03-22T06:43:49;94960.75;;;9.97;100.00
40245;BME280;25963;42.694;23.600;2023-03-22T06:46:14;94921.84;;;9.74;100.00
40245;BME280;25963;42.694;23.600;2023-03-22T06:48:40;94957.81;;;10.05;100.00
40245;BME280;25963;42.694;23.600;2023-03-22T06:51:06;94951.03;;;10.16;100.00
40245;BME280;25963;42.694;23.600;2023-03-22T06:53:31;94951.28;;;10.26;100.00
40245;BME280;25963;42.694;23.600;2023-03-22T06:55:57;94961.28;;;10.24;100.00
40245;BME280;25963;42.694;23.600;2023-03-22T06:58:22;94963.59;;;10.14;100.00
40245;BME280;25963;42.694;23.600;2023-03-22T07:00:48;94979.47;;;10.32;100.00
40245;BME280;25963;42.694;23.600;2023-03-22T07:03:13;94977.53;;;10.21;100.00
40245;BME280;25963;42.694;23.600;2023-03-22T07:05:38;94974.22;;;10.32;100.00
40245;BME280;25963;42.694;23.600;2023-03-22T07:08:04;94953.66;;;10.16;100.00
40245;BME280;25963;42.694;23.600;2023-03-22T07:10:29;94978.97;;;10.42;100.00
40245;BME280;25963;42.694;23.600;2023-03-22T07:12:55;94975.81;;;10.33;100.00
40245;BME280;25963;42.694;23.600;2023-03-22T07:15:20;94984.53;;;10.34;100.00
40245;BME280;25963;42.694;23.600;2023-03-22T07:17:52;94975.03;;;10.26;100.00
40245;BME280;25963;42.694;23.600;2023-03-22T07:20:18;94982.13;;;10.32;100.00
40245;BME280;25963;42.694;23.600;2023-03-22T07:22:44;94986.44;;;10.26;100.00
40245;BME280;25963;42.694;23.600;2023-03-22T07:25:10;95001.22;;;10.27;100.00
40245;BME280;25963;42.694;23.600;2023-03-22T07:27:36;94989.53;;;10.17;100.00
40245;BME280;25963;42.694;23.600;2023-03-22T07:30:03;94990.41;;;10.11;100.00
40245;BME280;25963;42.694;23.600;2023-03-22T07:32:29;94992.47;;;10.09;100.00
40245;BME280;25963;42.694;23.600;2023-03-22T07:34:55;95002.13;;;10.15;100.00
40245;BME280;25963;42.694;23.600;2023-03-22T07:37:20;94985.69;;;9.94;100.00
40245;BME280;25963;42.694;23.600;2023-03-22T07:39:46;94985.88;;;9.99;100.00
40245;BME280;25963;42.694;23.600;2023-03-22T07:42:12;95010.38;;;10.00;100.00
40245;BME280;25963;42.694;23.600;2023-03-22T07:44:37;95007.50;;;10.01;100.00
40245;BME280;25963;42.694;23.600;2023-03-22T07:47:03;95008.13;;;10.03;100.00
40245;BME280;25963;42.694;23.600;2023-03-22T07:49:29;95022.34;;;9.96;100.00
40245;BME280;25963;42.694;23.600;2023-03-22T07:51:55;95008.97;;;9.97;100.00
40245;BME280;25963;42.694;23.600;2023-03-22T07:54:21;95017.72;;;9.73;100.00
40245;BME280;25963;42.694;23.600;2023-03-22T07:56:46;95028.63;;;9.76;100.00
40245;BME280;25963;42.694;23.600;2023-03-22T07:59:15;95023.13;;;9.78;100.00
40245;BME280;25963;42.694;23.600;2023-03-22T08:01:41;95012.59;;;9.78;100.00
40245;BME280;25963;42.694;23.600;2023-03-22T08:04:07;95017.84;;;9.78;100.00
40245;BME280;25963;42.694;23.600;2023-03-22T08:06:33;94998.47;;;9.72;100.00
40245;BME280;25963;42.694;23.600;2023-03-22T08:09:02;95025.22;;;9.94;100.00
40245;BME280;25963;42.694;23.600;2023-03-22T08:11:28;95014.25;;;9.97;100.00
40245;BME280;25963;42.694;23.600;2023-03-22T08:13:54;95020.06;;;10.06;100.00
40245;BME280;25963;42.694;23.600;2023-03-22T08:16:19;95012.78;;;10.01;100.00
40245;BME280;25963;42.694;23.600;2023-03-22T08:18:45;95000.47;;;9.95;100.00
40245;BME280;25963;42.694;23.600;2023-03-22T08:21:10;95023.16;;;10.21;100.00
40245;BME280;25963;42.694;23.600;2023-03-22T08:23:36;95024.75;;;10.29;100.00
40245;BME280;25963;42.694;23.600;2023-03-22T08:26:01;95022.91;;;10.23;100.00
40245;BME280;25963;42.694;23.600;2023-03-22T08:28:27;95024.97;;;10.21;100.00
40245;BME280;25963;42.694;23.600;2023-03-22T08:30:52;95022.72;;;10.24;100.00
40245;BME280;25963;42.694;23.600;2023-03-22T08:33:18;95015.44;;;10.26;100.00
40245;BME280;25963;42.694;23.600;2023-03-22T08:35:46;95028.53;;;10.33;100.00
40245;BME280;25963;42.694;23.600;2023-03-22T08:38:11;95025.63;;;10.41;100.00
40245;BME280;25963;42.694;23.600;2023-03-22T08:40:36;95024.88;;;10.34;100.00
40245;BME280;25963;42.694;23.600;2023-03-22T08:43:02;95028.38;;;10.28;100.00
40245;BME280;25963;42.694;23.600;2023-03-22T08:45:28;95035.22;;;10.36;100.00
40245;BME280;25963;42.694;23.600;2023-03-22T08:47:53;95018.22;;;10.06;100.00
40245;BME280;25963;42.694;23.600;2023-03-22T08:50:19;95032.13;;;10.14;100.00
40245;BME280;25963;42.694;23.600;2023-03-22T08:52:45;95039.59;;;10.17;100.00
40245;BME280;25963;42.694;23.600;2023-03-22T08:55:10;95041.81;;;10.20;100.00
40245;BME280;25963;42.694;23.600;2023-03-22T08:57:36;95037.13;;;10.22;100.00
40245;BME280;25963;42.694;23.600;2023-03-22T09:00:04;95022.47;;;10.07;100.00
40245;BME280;25963;42.694;23.600;2023-03-22T09:02:30;95042.78;;;10.25;100.00
40245;BME280;25963;42.694;23.600;2023-03-22T09:04:56;95049.69;;;10.26;100.00
40245;BME280;25963;42.694;23.600;2023-03-22T09:07:21;95037.13;;;10.22;100.00
40245;BME280;25963;42.694;23.600;2023-03-22T09:09:48;95048.03;;;10.25;100.00
40245;BME280;25963;42.694;23.600;2023-03-22T09:12:14;95043.56;;;10.26;100.00
40245;BME280;25963;42.694;23.600;2023-03-22T09:14:39;95013.16;;;10.05;100.00
40245;BME280;25963;42.694;23.600;2023-03-22T09:17:05;95052.50;;;10.25;100.00
40245;BME280;25963;42.694;23.600;2023-03-22T09:19:31;95047.63;;;10.28;100.00
40245;BME280;25963;42.694;23.600;2023-03-22T09:21:56;95048.28;;;10.24;100.00
40245;BME280;25963;42.694;23.600;2023-03-22T09:24:22;95055.34;;;10.30;100.00
40245;BME280;25963;42.694;23.600;2023-03-22T09:26:47;95050.28;;;10.28;100.00
40245;BME280;25963;42.694;23.600;2023-03-22T09:29:13;95034.75;;;10.14;100.00
40245;BME280;25963;42.694;23.600;2023-03-22T09:31:39;95051.59;;;10.38;100.00
40245;BME280;25963;42.694;23.600;2023-03-22T09:34:04;95049.91;;;10.43;100.00
40245;BME280;25963;42.694;23.600;2023-03-22T09:36:30;95051.47;;;10.51;100.00
40245;BME280;25963;42.694;23.600;2023-03-22T09:38:59;95058.16;;;10.54;100.00
40245;BME280;25963;42.694;23.600;2023-03-22T09:41:37;95057.13;;;10.55;100.00
40245;BME280;25963;42.694;23.600;2023-03-22T09:44:06;95047.59;;;10.54;100.00
40245;BME280;25963;42.694;23.600;2023-03-22T09:46:38;95046.94;;;10.58;100.00
40245;BME280;25963;42.694;23.600;2023-03-22T09:49:11;95053.84;;;10.59;100.00
40245;BME280;25963;42.694;23.600;2023-03-22T09:51:46;95061.44;;;10.67;100.00
40245;BME280;25963;42.694;23.600;2023-03-22T09:54:19;95048.63;;;10.71;100.00
40245;BME280;25963;42.694;23.600;2023-03-22T09:56:59;95054.47;;;10.73;100.00
40245;BME280;25963;42.694;23.600;2023-03-22T10:01:59;95060.69;;;10.79;100.00
40245;BME280;25963;42.694;23.600;2023-03-22T10:07:23;95066.94;;;10.84;100.00
40245;BME280;25963;42.694;23.600;2023-03-22T10:10:07;95070.72;;;10.88;100.00
40245;BME280;25963;42.694;23.600;2023-03-22T10:12:55;95066.19;;;10.95;100.00
40245;BME280;25963;42.694;23.600;2023-03-22T10:15:39;95069.41;;;10.97;100.00
40245;BME280;25963;42.694;23.600;2023-03-22T10:18:10;95062.38;;;10.91;100.00
40245;BME280;25963;42.694;23.600;2023-03-22T10:23:57;95068.41;;;10.99;100.00
40245;BME280;25963;42.694;23.600;2023-03-22T10:26:33;95046.72;;;10.78;100.00
40245;BME280;25963;42.694;23.600;2023-03-22T10:31:31;95065.88;;;11.04;100.00
40245;BME280;25963;42.694;23.600;2023-03-22T10:34:02;95069.09;;;11.06;100.00
40245;BME280;25963;42.694;23.600;2023-03-22T10:36:29;95069.91;;;11.06;100.00
40245;BME280;25963;42.694;23.600;2023-03-22T10:39:10;95068.16;;;11.00;100.00
40245;BME280;25963;42.694;23.600;2023-03-22T10:41:40;95068.97;;;11.01;100.00
40245;BME280;25963;42.694;23.600;2023-03-22T10:44:07;95067.94;;;11.02;100.00
40245;BME280;25963;42.694;23.600;2023-03-22T10:46:37;95064.63;;;11.06;100.00
40245;BME280;25963;42.694;23.600;2023-03-22T10:49:04;95059.75;;;11.10;100.00
40245;BME280;25963;42.694;23.600;2023-03-22T10:52:17;95056.72;;;11.06;100.00
40245;BME280;25963;42.694;23.600;2023-03-22T10:54:46;95050.94;;;10.97;100.00
40245;BME280;25963;42.694;23.600;2023-03-22T10:57:12;95058.47;;;11.12;100.00
40245;BME280;25963;42.694;23.600;2023-03-22T10:59:48;95065.00;;;11.10;100.00
40245;BME280;25963;42.694;23.600;2023-03-22T11:02:29;95044.19;;;11.02;100.00
40245;BME280;25963;42.694;23.600;2023-03-22T11:04:58;95053.88;;;11.08;100.00
40245;BME280;25963;42.694;23.600;2023-03-22T11:10:11;95064.38;;;11.26;100.00
40245;BME280;25963;42.694;23.600;2023-03-22T11:12:41;95061.16;;;11.24;100.00
40245;BME280;25963;42.694;23.600;2023-03-22T11:17:48;95058.88;;;10.79;100.00
40245;BME280;25963;42.694;23.600;2023-03-22T11:20:18;95047.44;;;10.85;100.00
40245;BME280;25963;42.694;23.600;2023-03-22T11:22:45;95017.72;;;10.60;100.00
40245;BME280;25963;42.694;23.600;2023-03-22T11:25:19;95058.06;;;10.79;100.00
40245;BME280;25963;42.694;23.600;2023-03-22T11:30:57;95050.69;;;10.69;100.00
40245;BME280;25963;42.694;23.600;2023-03-22T11:33:23;95047.16;;;10.75;100.00
40245;BME280;25963;42.694;23.600;2023-03-22T11:35:56;95043.03;;;10.79;100.00
40245;BME280;25963;42.694;23.600;2023-03-22T11:41:21;95050.81;;;10.74;100.00
40245;BME280;25963;42.694;23.600;2023-03-22T11:44:07;95053.59;;;10.79;100.00
40245;BME280;25963;42.694;23.600;2023-03-22T11:46:35;95052.06;;;10.90;100.00
40245;BME280;25963;42.694;23.600;2023-03-22T11:49:05;95047.13;;;10.93;100.00
40245;BME280;25963;42.694;23.600;2023-03-22T11:51:34;95047.81;;;10.89;100.00
40245;BME280;25963;42.694;23.600;2023-03-22T11:56:47;95024.28;;;10.69;100.00
40245;BME280;25963;42.694;23.600;2023-03-22T11:59:24;95045.19;;;11.01;100.00
40245;BME280;25963;42.694;23.600;2023-03-22T12:04:34;95045.16;;;11.37;100.00
40245;BME280;25963;42.694;23.600;2023-03-22T12:07:05;95055.38;;;11.46;100.00
40245;BME280;25963;42.694;23.600;2023-03-22T12:09:42;95050.94;;;11.58;100.00
40245;BME280;25963;42.694;23.600;2023-03-22T12:12:16;95044.94;;;11.51;100.00
40245;BME280;25963;42.694;23.600;2023-03-22T12:14:49;95045.56;;;11.64;100.00
40245;BME280;25963;42.694;23.600;2023-03-22T12:17:34;95049.59;;;11.67;100.00
40245;BME280;25963;42.694;23.600;2023-03-22T12:22:46;95027.81;;;11.41;100.00
40245;BME280;25963;42.694;23.600;2023-03-22T12:25:16;95048.72;;;11.43;100.00
40245;BME280;25963;42.694;23.600;2023-03-22T12:27:46;95034.69;;;11.42;100.00
40245;BME280;25963;42.694;23.600;2023-03-22T12:30:19;95049.53;;;11.43;100.00
40245;BME280;25963;42.694;23.600;2023-03-22T12:33:03;95014.81;;;11.28;100.00
40245;BME280;25963;42.694;23.600;2023-03-22T12:35:33;95027.28;;;11.21;100.00
40245;BME280;25963;42.694;23.600;2023-03-22T12:38:06;95046.16;;;11.36;100.00
40245;BME280;25963;42.694;23.600;2023-03-22T12:40:40;95051.84;;;11.52;100.00
40245;BME280;25963;42.694;23.600;2023-03-22T12:43:23;95037.00;;;11.51;100.00
40245;BME280;25963;42.694;23.600;2023-03-22T12:45:57;95039.34;;;11.59;100.00
40245;BME280;25963;42.694;23.600;2023-03-22T12:48:45;95049.88;;;11.47;100.00
40245;BME280;25963;42.694;23.600;2023-03-22T12:51:12;95045.69;;;11.39;100.00
40245;BME280;25963;42.694;23.600;2023-03-22T12:53:42;95039.97;;;11.42;100.00
40245;BME280;25963;42.694;23.600;2023-03-22T12:56:14;95043.78;;;11.47;100.00
40245;BME280;25963;42.694;23.600;2023-03-22T12:58:45;95031.25;;;11.12;100.00
40245;BME280;25963;42.694;23.600;2023-03-22T13:01:27;95038.63;;;11.10;100.00
40245;BME280;25963;42.694;23.600;2023-03-22T13:03:55;95039.31;;;11.17;100.00
40245;BME280;25963;42.694;23.600;2023-03-22T13:06:53;95038.28;;;11.18;100.00
40245;BME280;25963;42.694;23.600;2023-03-22T13:09:44;95047.59;;;11.20;100.00
40245;BME280;25963;42.694;23.600;2023-03-22T13:14:59;95036.13;;;10.96;100.00
40245;BME280;25963;42.694;23.600;2023-03-22T13:19:58;95014.31;;;10.52;100.00
40245;BME280;25963;42.694;23.600;2023-03-22T13:22:29;95029.41;;;10.64;100.00
40245;BME280;25963;42.694;23.600;2023-03-22T13:38:34;95026.63;;;10.59;100.00
40245;BME280;25963;42.694;23.600;2023-03-22T13:43:48;95022.69;;;10.68;100.00
40245;BME280;25963;42.694;23.600;2023-03-22T14:01:57;95033.06;;;10.81;100.00
40245;BME280;25963;42.694;23.600;2023-03-22T14:04:37;95019.19;;;10.86;100.00
40245;BME280;25963;42.694;23.600;2023-03-22T14:07:17;95028.38;;;10.83;100.00
40245;BME280;25963;42.694;23.600;2023-03-22T14:09:51;95029.28;;;10.77;100.00
40245;BME280;25963;42.694;23.600;2023-03-22T14:12:27;95024.59;;;10.61;100.00
40245;BME280;25963;42.694;23.600;2023-03-22T14:14:59;95026.88;;;10.39;100.00
40245;BME280;25963;42.694;23.600;2023-03-22T14:17:38;95029.13;;;10.54;100.00
40245;BME280;25963;42.694;23.600;2023-03-22T14:20:06;95031.53;;;10.37;100.00
40245;BME280;25963;42.694;23.600;2023-03-22T14:22:38;95025.84;;;10.15;100.00
40245;BME280;25963;42.694;23.600;2023-03-22T14:25:06;95033.47;;;10.23;100.00
40245;BME280;25963;42.694;23.600;2023-03-22T14:27:34;95028.78;;;10.25;100.00